Impacts METAR Board
IDs:

KSTL - St Louis/Lambert Int, MO, US

Updated at: 0700 UTC 28 Sep 2022
Potential Impact None Slight Moderate High
Time 27/19Z 27/20Z 27/21Z 27/22Z 27/23Z 28/00Z 28/01Z 28/02Z 28/03Z 28/04Z 28/05Z 28/06Z 28/07Z
Temp74 75 74 72 70 66 65 61 61 61 56 56 54
Dewpt35 35 38 38 38 39 40 41 42 40 42 38 36
Altim30.18 30.17 30.16 30.17 30.18 30.19 30.20 30.23 30.25 30.27 30.30 30.30 30.31
VIS10 10 10 10 10 10 10 10 10 10 10 10 10
CIG-- -- -- 100 100 -- -- -- -- -- -- -- --
CoverFEWFEWFEWOVCBKNSCTSCTFEWFEWCLRCLRCLRFEW
FltCatVFRVFRVFRVFRVFRVFRVFRVFRVFRVFRVFRVFRVFR
WX--------------------------
WDir33033033034035036034002040706060
WSpd9 12 12 10 10 6 5 0 4 5 3 6 5
WGst-- -- 20 18 -- -- -- -- -- -- -- -- --
Raw hourly METARs
KSTL 271851Z 33009KT 10SM FEW250 23/02 A3018 RMK AO2 SLP214 T02330017
KSTL 271951Z 33012KT 10SM FEW100 24/02 A3017 RMK AO2 SLP212 T02390017
KSTL 272051Z 33012G20KT 10SM FEW100 23/03 A3016 RMK AO2 SLP209 T02330033 56013
KSTL 272151Z COR 34010G18KT 10SM BKN100 OVC250 22/03 A3017 RMK AO2 SLP214 T02220033
KSTL 272251Z 35010KT 10SM BKN100 BKN250 21/03 A3018 RMK AO2 SLP216 T02110033
KSTL 272351Z 36006KT 10SM SCT100 SCT250 19/04 A3019 RMK AO2 SLP220 T01890039 10239 20189 51009
KSTL 280051Z 34005KT 10SM FEW095 SCT250 18/04 A3020 RMK AO2 SLP224 T01830044
KSTL 280151Z 00000KT 10SM FEW095 16/05 A3023 RMK AO2 SLP234 T01610050
KSTL 280251Z 02004KT 10SM FEW095 16/06 A3025 RMK AO2 SLP241 T01610056 53022
KSTL 280351Z 04005KT 10SM CLR 16/04 A3027 RMK AO2 SLP246 T01610044
KSTL 280451Z 07003KT 10SM CLR 13/06 A3030 RMK AO2 SLP254 T01330056
KSTL 280551Z 06006KT 10SM CLR 13/03 A3030 RMK AO2 SLP256 T01330033 10189 20133 402390094 51016
KSTL 280651Z 06005KT 10SM FEW250 12/02 A3031 RMK AO2 SLP259 T01220022



Page loaded:  07:40 UTC  |   12:40 AM Pacific  |   01:40 AM Mountain  |   02:40 AM Central  |   03:40 AM Eastern

 

ADVISORIES

FORECASTS

FORECASTS

OBSERVATIONS

USER TOOLS

ABOUT US